Terminal Aerodrome Forecast
Issued by NWS

Home | Current Version | Previous Version | Graphics & Text | Print | Product List | Glossary On
Versions: 1 2 3 4 5 6 7 8 9 10 11 12 13 14 15 16 17
000
FTUS43 KMPX 191400 AAA
TAFRNH
TAF AMD
KRNH 191442Z 1915/2012 17005KT P6SM SCT015 OVC050
     FM191600 16005KT P6SM SCT012 OVC020
     FM200400 15004KT 5SM BR OVC007=

USA.gov is the U.S. government's official web portal to all federal, state and local government web resources and services.